Bayrakli — TCA4405 — position and weather

sailwx.info

Track history (hours):
 
Tides and Currents Weather Stations Pressure Air Temp Water Temp Dewpoint Dewpoint Depression Visibility Wind Speed Wind Dir Waves Ship Positions

Bayrakli

Last reported at 2018-Mar-10 21:01 UTC. Time now 2018-Apr-19 15:21 UTC.
Position N 40°58' E 028°52'.
Warning: this ship's position is 39 days out of date.

Length 83 m; draft 5.6 m.

Type: Ship. MMSI: 271044658.

Date/timePositionNaut miles runAvg speedWind from/ knotsBaromVisibWave heightAir tempDewpointWater temp
2018-Mar-10 21:01N 40°58' E 028°52'0 0.0
2018-Mar-10 20:55N 40°58' E 028°52'0 0.0
2018-Mar-10 20:25N 40°58' E 028°52'0 0.0
2018-Mar-10 05:13N 40°58' E 028°52'13 0.5
2018-Mar-09 04:39N 40°52' E 028°37'4 9.5
2018-Mar-09 04:14N 40°52' E 028°42'2 9.4
2018-Mar-09 04:00N 40°52' E 028°45'6 8.9
2018-Mar-09 03:18N 40°49' E 028°52'3 8.9
2018-Mar-09 03:00N 40°49' E 028°56'4 8.6
2018-Mar-09 02:30N 40°47' E 029°01'4 8.7
2018-Mar-09 02:00N 40°46' E 029°07'4 8.7
2018-Mar-09 01:30N 40°46' E 029°12'4 8.6
2018-Mar-09 01:00N 40°45' E 029°18'4 7.7
2018-Mar-09 00:29N 40°44' E 029°23'4 8.2
2018-Mar-09 00:00N 40°45' E 029°28'4 8.0
2018-Mar-08 23:28N 40°45' E 029°34'  
2018-Mar-04 13:12N 40°57' E 028°50'  
Track history (hours):
 
Tides and Currents Weather Stations Pressure Air Temp Water Temp Dewpoint Dewpoint Depression Visibility Wind Speed Wind Dir Waves Ship Positions

Bayrakli

Last reported at 2018-Mar-10 21:01 UTC. Time now 2018-Apr-19 15:21 UTC.
Position N 40°58' E 028°52'.
Warning: this ship's position is 39 days out of date.

Length 83 m; draft 5.6 m.

Type: Ship. MMSI: 271044658.

Date/timePositionNaut miles runAvg speedWind from/ knotsBaromVisibWave heightAir tempDewpointWater temp
2018-Mar-10 21:01N 40°58' E 028°52'0 0.0
2018-Mar-10 20:55N 40°58' E 028°52'0 0.0
2018-Mar-10 20:25N 40°58' E 028°52'0 0.0
2018-Mar-10 05:13N 40°58' E 028°52'13 0.5
2018-Mar-09 04:39N 40°52' E 028°37'4 9.5
2018-Mar-09 04:14N 40°52' E 028°42'2 9.4
2018-Mar-09 04:00N 40°52' E 028°45'6 8.9
2018-Mar-09 03:18N 40°49' E 028°52'3 8.9
2018-Mar-09 03:00N 40°49' E 028°56'4 8.6
2018-Mar-09 02:30N 40°47' E 029°01'4 8.7
2018-Mar-09 02:00N 40°46' E 029°07'4 8.7
2018-Mar-09 01:30N 40°46' E 029°12'4 8.6
2018-Mar-09 01:00N 40°45' E 029°18'4 7.7
2018-Mar-09 00:29N 40°44' E 029°23'4 8.2
2018-Mar-09 00:00N 40°45' E 029°28'4 8.0
2018-Mar-08 23:28N 40°45' E 029°34'  
2018-Mar-04 13:12N 40°57' E 028°50'  

Dump ship's entire track history